createdAt,value
2019-04-30T00:00:18.186Z,8.47
2019-04-30T00:03:01.751Z,8.48
2019-04-30T00:05:35.149Z,8.49
2019-04-30T00:08:05.997Z,8.50
2019-04-30T00:10:41.346Z,8.48
2019-04-30T00:13:14.538Z,8.49
2019-04-30T00:15:43.134Z,8.51
2019-04-30T00:18:15.514Z,8.53
2019-04-30T00:20:47.773Z,8.53
2019-04-30T00:23:22.590Z,8.55
2019-04-30T00:25:50.631Z,8.56
2019-04-30T00:28:21.777Z,8.58
2019-04-30T00:30:52.707Z,8.63
2019-04-30T00:33:27.489Z,8.64
2019-04-30T00:35:58.089Z,8.63
2019-04-30T00:38:33.526Z,8.62
2019-04-30T00:41:06.929Z,8.66
2019-04-30T00:43:37.792Z,8.64
2019-04-30T00:46:08.398Z,8.65
2019-04-30T00:48:39.675Z,8.66
2019-04-30T00:51:17.877Z,8.65
2019-04-30T00:53:48.509Z,8.67
2019-04-30T00:56:19.828Z,8.71
2019-04-30T00:58:48.333Z,8.71
2019-04-30T01:01:21.254Z,8.71
2019-04-30T01:03:59.638Z,8.69
2019-04-30T01:06:30.788Z,8.72
2019-04-30T01:09:05.379Z,8.72
2019-04-30T01:11:35.549Z,8.69
2019-04-30T01:14:06.660Z,8.74
2019-04-30T01:16:39.457Z,8.77
2019-04-30T01:19:21.287Z,8.77
2019-04-30T01:21:47.024Z,8.83
2019-04-30T01:24:16.151Z,8.85
2019-04-30T01:26:48.582Z,8.84
2019-04-30T01:29:20.509Z,8.87
2019-04-30T01:31:51.962Z,8.87
2019-04-30T01:34:22.975Z,8.86
2019-04-30T01:36:53.087Z,8.86
2019-04-30T01:39:29.977Z,8.88
2019-04-30T01:41:58.679Z,8.90
2019-04-30T01:44:30.639Z,8.87
2019-04-30T01:47:01.543Z,8.91
2019-04-30T01:49:42.231Z,8.88
2019-04-30T01:52:05.551Z,8.87
2019-04-30T01:54:36.720Z,8.89
2019-04-30T01:57:25.751Z,8.90
2019-04-30T02:00:04.416Z,8.91
2019-04-30T02:02:36.987Z,8.91
2019-04-30T02:05:08.933Z,8.92
2019-04-30T02:07:40.414Z,8.94
2019-04-30T02:10:11.952Z,8.97
2019-04-30T02:12:43.016Z,8.94
2019-04-30T02:15:14.176Z,8.98
2019-04-30T02:17:45.160Z,8.95
2019-04-30T02:20:15.543Z,8.95
2019-04-30T02:22:48.497Z,8.97
2019-04-30T02:25:19.857Z,8.99
2019-04-30T02:27:50.926Z,9.00
2019-04-30T02:30:21.908Z,8.99
2019-04-30T02:32:53.161Z,9.02
2019-04-30T02:35:28.921Z,9.03
2019-04-30T02:38:20.168Z,9.03
2019-04-30T02:40:52.944Z,9.02
2019-04-30T02:43:25.550Z,9.05
2019-04-30T02:45:59.914Z,9.05
2019-04-30T02:48:33.232Z,9.05
2019-04-30T02:51:06.294Z,9.03
2019-04-30T02:53:52.555Z,9.04
2019-04-30T02:56:26.758Z,9.01
2019-04-30T02:59:00.393Z,9.02
2019-04-30T03:01:30.786Z,9.03
2019-04-30T03:04:00.990Z,9.02
2019-04-30T03:06:32.163Z,9.02
2019-04-30T03:09:04.180Z,9.03
2019-04-30T03:11:35.434Z,9.03
2019-04-30T03:14:06.665Z,9.01
2019-04-30T03:16:54.341Z,8.98
2019-04-30T03:19:33.043Z,8.98
2019-04-30T03:22:10.165Z,8.97
2019-04-30T03:24:42.935Z,8.96
2019-04-30T03:27:14.369Z,8.96
2019-04-30T03:29:45.453Z,8.97
2019-04-30T03:32:21.452Z,8.97
2019-04-30T03:34:51.549Z,8.97
2019-04-30T03:37:22.293Z,8.96
2019-04-30T03:39:53.217Z,8.96
2019-04-30T03:42:24.996Z,8.95
2019-04-30T03:44:56.027Z,8.94
2019-04-30T03:47:26.300Z,8.95
2019-04-30T03:50:00.019Z,8.98
2019-04-30T03:52:30.270Z,8.97
2019-04-30T03:55:02.895Z,8.93
2019-04-30T03:57:34.099Z,8.90
2019-04-30T04:00:09.410Z,8.88
2019-04-30T04:02:41.954Z,8.83
2019-04-30T04:05:23.680Z,8.83
2019-04-30T04:08:09.545Z,8.82
2019-04-30T04:10:45.418Z,8.77
2019-04-30T04:13:16.677Z,8.76
2019-04-30T04:15:49.929Z,8.73
2019-04-30T04:18:20.635Z,8.72
2019-04-30T04:21:07.021Z,8.70
2019-04-30T04:23:24.515Z,8.66
2019-04-30T04:25:55.689Z,8.65
2019-04-30T04:28:26.850Z,8.68
2019-04-30T04:30:59.926Z,8.71
2019-04-30T04:33:29.871Z,8.68
2019-04-30T04:36:01.055Z,8.70
2019-04-30T04:38:32.300Z,8.73
2019-04-30T04:41:03.387Z,8.69
2019-04-30T04:43:34.433Z,8.71
2019-04-30T04:46:05.463Z,8.69
2019-04-30T04:48:39.370Z,8.69
2019-04-30T04:51:26.801Z,8.70
2019-04-30T04:53:42.166Z,8.64
2019-04-30T04:56:13.235Z,8.62
2019-04-30T04:58:44.493Z,8.65
2019-04-30T05:01:15.720Z,8.65
2019-04-30T05:03:49.023Z,8.67
2019-04-30T05:06:21.857Z,8.69
2019-04-30T05:08:51.966Z,8.69
2019-04-30T05:11:23.244Z,8.67
2019-04-30T05:13:58.893Z,8.68
2019-04-30T05:16:30.217Z,8.69
2019-04-30T05:19:01.309Z,8.70
2019-04-30T05:21:41.971Z,8.67
2019-04-30T05:24:05.307Z,8.60
2019-04-30T05:26:38.589Z,8.49
2019-04-30T05:29:09.554Z,8.49
2019-04-30T05:31:40.717Z,8.48
2019-04-30T05:34:11.734Z,8.45
2019-04-30T05:36:42.844Z,8.49
2019-04-30T05:39:13.906Z,8.54
2019-04-30T05:41:44.031Z,8.61
2019-04-30T05:44:18.544Z,9.97
2019-04-30T05:46:49.633Z,10.95
2019-04-30T05:49:20.850Z,11.72
2019-04-30T05:51:55.496Z,11.97
2019-04-30T05:54:24.763Z,12.09
2019-04-30T05:56:55.740Z,11.99
2019-04-30T05:59:28.813Z,12.10
2019-04-30T06:01:59.619Z,12.02
2019-04-30T06:04:30.941Z,12.14
2019-04-30T06:07:01.894Z,12.12
2019-04-30T06:09:34.752Z,11.70
2019-04-30T06:12:10.851Z,11.31
2019-04-30T06:15:00.302Z,10.48
2019-04-30T06:17:32.350Z,10.63
2019-04-30T06:20:16.129Z,10.41
2019-04-30T06:22:38.603Z,10.08
2019-04-30T06:25:10.809Z,9.97
2019-04-30T06:27:41.905Z,9.92
2019-04-30T06:30:13.241Z,10.04
2019-04-30T06:32:44.739Z,10.13
2019-04-30T06:35:15.975Z,10.43
2019-04-30T06:37:48.915Z,10.60
2019-04-30T06:40:20.886Z,10.52
2019-04-30T06:42:52.439Z,10.56
2019-04-30T06:45:23.337Z,10.62
2019-04-30T06:47:55.951Z,10.95
2019-04-30T06:50:26.876Z,11.22
2019-04-30T06:53:01.020Z,11.51
2019-04-30T06:55:31.080Z,11.71
2019-04-30T06:58:11.940Z,11.90
2019-04-30T07:00:40.062Z,12.15
2019-04-30T07:03:10.828Z,12.39
2019-04-30T07:05:42.048Z,12.45
2019-04-30T07:08:39.681Z,12.40
2019-04-30T07:11:20.411Z,12.80
2019-04-30T07:13:52.186Z,13.04
2019-04-30T07:16:23.696Z,13.60
2019-04-30T07:18:54.660Z,13.88
2019-04-30T07:21:25.938Z,13.48
2019-04-30T07:23:56.856Z,12.92
2019-04-30T07:26:28.892Z,12.33
2019-04-30T07:29:02.602Z,11.50
2019-04-30T07:31:32.999Z,11.32
2019-04-30T07:34:04.016Z,11.28
2019-04-30T07:36:48.401Z,11.05
2019-04-30T07:39:10.005Z,11.01
2019-04-30T07:41:41.504Z,11.00
2019-04-30T07:44:29.456Z,11.21
2019-04-30T07:46:45.446Z,11.57
2019-04-30T07:49:16.748Z,11.52
2019-04-30T07:51:51.083Z,11.22
2019-04-30T07:54:20.523Z,11.04
2019-04-30T07:56:51.546Z,10.92
2019-04-30T07:59:22.669Z,10.81
2019-04-30T08:02:06.433Z,10.94
2019-04-30T08:04:29.293Z,10.90
2019-04-30T08:07:02.126Z,10.96
2019-04-30T08:09:39.796Z,11.11
2019-04-30T08:12:06.384Z,11.12
2019-04-30T08:14:39.068Z,11.17
2019-04-30T08:17:10.057Z,11.36
2019-04-30T08:19:41.127Z,11.51
2019-04-30T08:22:12.378Z,11.59
2019-04-30T08:24:43.446Z,11.56
2019-04-30T08:27:14.751Z,11.62
2019-04-30T08:29:45.714Z,11.23
2019-04-30T08:32:18.931Z,11.62
2019-04-30T08:34:50.222Z,12.15
2019-04-30T08:37:21.553Z,13.24
2019-04-30T08:39:52.494Z,14.37
2019-04-30T08:42:33.293Z,14.66
2019-04-30T08:44:58.444Z,14.71
2019-04-30T08:47:29.359Z,14.97
2019-04-30T08:50:02.704Z,14.56
2019-04-30T08:52:33.403Z,14.70
2019-04-30T08:55:16.189Z,15.11
2019-04-30T08:57:39.911Z,15.23
2019-04-30T09:00:14.908Z,14.68
2019-04-30T09:02:44.683Z,14.23
2019-04-30T09:05:20.513Z,13.67
2019-04-30T09:07:51.503Z,13.58
2019-04-30T09:10:22.758Z,13.14
2019-04-30T09:12:53.695Z,12.93
2019-04-30T09:15:24.932Z,13.27
2019-04-30T09:18:03.300Z,13.10
2019-04-30T09:20:29.155Z,13.15
2019-04-30T09:23:00.149Z,13.34
2019-04-30T09:25:31.313Z,13.55
2019-04-30T09:28:04.472Z,13.96
2019-04-30T09:30:35.480Z,13.74
2019-04-30T09:33:06.607Z,13.79
2019-04-30T09:35:39.477Z,13.46
2019-04-30T09:38:10.230Z,13.15
2019-04-30T09:40:41.788Z,13.45
2019-04-30T09:43:13.013Z,13.42
2019-04-30T09:45:44.051Z,13.13
2019-04-30T09:48:15.121Z,13.42
2019-04-30T09:50:46.533Z,13.27
2019-04-30T09:53:19.508Z,13.08
2019-04-30T09:55:51.007Z,12.64
2019-04-30T09:58:22.438Z,12.60
2019-04-30T10:00:53.527Z,12.64
2019-04-30T10:03:25.254Z,14.07
2019-04-30T10:05:56.683Z,16.06
2019-04-30T10:08:27.447Z,17.76
2019-04-30T10:11:09.755Z,18.65
2019-04-30T10:13:39.920Z,19.08
2019-04-30T10:16:29.678Z,19.55
2019-04-30T10:19:01.430Z,20.08
2019-04-30T10:21:32.556Z,18.51
2019-04-30T10:24:13.037Z,17.74
2019-04-30T10:26:39.697Z,17.85
2019-04-30T10:29:11.160Z,17.01
2019-04-30T10:31:42.292Z,16.11
2019-04-30T10:34:13.593Z,16.66
2019-04-30T10:36:44.787Z,16.84
2019-04-30T10:39:15.744Z,17.82
2019-04-30T10:41:46.947Z,18.49
2019-04-30T10:44:18.792Z,18.19
2019-04-30T10:46:50.073Z,18.07
2019-04-30T10:49:21.252Z,17.32
2019-04-30T10:51:51.583Z,16.88
2019-04-30T10:54:26.068Z,16.43
2019-04-30T10:56:55.343Z,16.43
2019-04-30T10:59:26.670Z,16.47
2019-04-30T11:01:59.198Z,16.65
2019-04-30T11:04:30.612Z,16.62
2019-04-30T11:07:01.533Z,16.03
2019-04-30T11:09:33.262Z,15.48
2019-04-30T11:12:09.502Z,16.11
2019-04-30T11:14:40.657Z,16.79
2019-04-30T11:17:11.803Z,17.15
2019-04-30T11:19:43.258Z,18.60
2019-04-30T11:22:14.349Z,19.64
2019-04-30T11:24:56.605Z,20.75
2019-04-30T11:27:18.395Z,21.33
2019-04-30T11:29:50.215Z,20.87
2019-04-30T11:32:23.776Z,19.99
2019-04-30T11:34:54.874Z,19.29
2019-04-30T11:37:26.072Z,18.87
2019-04-30T11:39:57.176Z,18.74
2019-04-30T11:42:28.423Z,19.58
2019-04-30T11:44:59.376Z,19.67
2019-04-30T11:47:32.280Z,19.50
2019-04-30T11:50:04.462Z,20.26
2019-04-30T11:52:35.743Z,20.64
2019-04-30T11:55:09.637Z,21.33
2019-04-30T11:57:40.948Z,18.88
2019-04-30T12:00:16.217Z,18.88
2019-04-30T12:02:46.827Z,17.85
2019-04-30T12:05:20.523Z,18.32
2019-04-30T12:07:52.770Z,19.12
2019-04-30T12:10:34.968Z,18.88
2019-04-30T12:13:09.528Z,18.97
2019-04-30T12:15:40.745Z,19.23
2019-04-30T12:18:14.420Z,19.69
2019-04-30T12:20:45.506Z,18.56
2019-04-30T12:23:16.509Z,18.56
2019-04-30T12:25:49.269Z,18.39
2019-04-30T12:28:20.310Z,19.62
2019-04-30T12:30:51.596Z,20.53
2019-04-30T12:33:22.626Z,21.85
2019-04-30T12:35:53.914Z,21.56
2019-04-30T12:38:24.812Z,21.64
2019-04-30T12:40:55.053Z,22.94
2019-04-30T12:43:35.238Z,24.41
2019-04-30T12:46:14.776Z,24.80
2019-04-30T12:48:54.428Z,24.28
2019-04-30T12:51:31.029Z,23.44
2019-04-30T12:54:07.665Z,22.87
2019-04-30T12:56:57.141Z,22.37
2019-04-30T12:59:33.248Z,21.50
2019-04-30T13:02:13.021Z,22.64
2019-04-30T13:04:50.444Z,23.11
2019-04-30T13:07:32.125Z,21.96
2019-04-30T13:10:11.480Z,22.65
2019-04-30T13:12:44.325Z,22.10
2019-04-30T13:15:16.165Z,21.55
2019-04-30T13:17:50.137Z,20.19
2019-04-30T13:20:29.320Z,20.12
2019-04-30T13:23:05.091Z,20.36
2019-04-30T13:25:51.228Z,20.48
2019-04-30T13:28:25.467Z,19.67
2019-04-30T13:31:04.726Z,19.26
2019-04-30T13:33:47.899Z,19.26
2019-04-30T13:36:23.093Z,19.00
2019-04-30T13:38:59.390Z,19.06
2019-04-30T13:41:46.004Z,18.47
2019-04-30T13:44:19.521Z,19.62
2019-04-30T13:46:49.805Z,21.24
2019-04-30T13:49:21.090Z,21.37
2019-04-30T13:51:58.873Z,19.63
2019-04-30T13:54:41.486Z,19.11
2019-04-30T13:57:20.483Z,19.33
2019-04-30T13:59:59.632Z,18.97
2019-04-30T14:02:40.077Z,19.08
2019-04-30T14:05:20.469Z,19.09
2019-04-30T14:08:09.543Z,19.66
2019-04-30T14:10:49.327Z,21.13
2019-04-30T14:13:26.242Z,21.32
2019-04-30T14:16:01.587Z,21.68
2019-04-30T14:18:34.186Z,22.42
2019-04-30T14:21:10.788Z,23.02
2019-04-30T14:23:41.928Z,22.45
2019-04-30T14:26:13.221Z,21.75
2019-04-30T14:28:44.239Z,21.31
2019-04-30T14:31:15.709Z,21.65
2019-04-30T14:33:46.839Z,22.50
2019-04-30T14:36:19.296Z,22.73
2019-04-30T14:38:49.946Z,23.61
2019-04-30T14:41:21.652Z,24.15
2019-04-30T14:43:57.529Z,23.72
2019-04-30T14:46:42.539Z,21.75
2019-04-30T14:49:33.040Z,20.61
2019-04-30T14:52:04.902Z,19.84
2019-04-30T14:54:37.797Z,20.78
2019-04-30T14:57:25.908Z,20.11
2019-04-30T15:00:01.854Z,19.88
2019-04-30T15:02:33.317Z,20.07
2019-04-30T15:05:08.816Z,20.33
2019-04-30T15:07:39.744Z,20.51
2019-04-30T15:10:11.215Z,20.62
2019-04-30T15:12:42.162Z,20.98
2019-04-30T15:15:14.291Z,21.23
2019-04-30T15:17:45.185Z,21.61
2019-04-30T15:20:16.714Z,22.18
2019-04-30T15:22:55.518Z,21.65
2019-04-30T15:25:34.034Z,21.34
2019-04-30T15:27:59.619Z,21.41
2019-04-30T15:30:29.822Z,20.84
2019-04-30T15:33:18.780Z,20.51
2019-04-30T15:35:50.306Z,20.31
2019-04-30T15:38:23.062Z,20.16
2019-04-30T15:40:54.038Z,20.03
2019-04-30T15:43:25.608Z,20.16
2019-04-30T15:45:57.330Z,20.53
2019-04-30T15:48:28.488Z,20.93
2019-04-30T15:50:59.528Z,21.08
2019-04-30T15:53:30.706Z,20.59
2019-04-30T15:56:01.732Z,20.15
2019-04-30T15:58:34.580Z,19.85
2019-04-30T16:01:09.009Z,19.79
2019-04-30T16:03:41.774Z,19.59
2019-04-30T16:06:12.755Z,19.55
2019-04-30T16:08:47.312Z,19.61
2019-04-30T16:11:26.031Z,20.08
2019-04-30T16:14:09.647Z,20.22
2019-04-30T16:16:42.450Z,19.99
2019-04-30T16:19:13.466Z,19.99
2019-04-30T16:21:44.545Z,19.48
2019-04-30T16:24:15.710Z,19.23
2019-04-30T16:26:50.654Z,19.17
2019-04-30T16:29:19.623Z,18.76
2019-04-30T16:31:51.031Z,18.62
2019-04-30T16:34:21.939Z,18.79
2019-04-30T16:36:56.385Z,18.66
2019-04-30T16:39:28.795Z,18.72
2019-04-30T16:42:00.081Z,18.75
2019-04-30T16:44:31.146Z,18.76
2019-04-30T16:47:13.106Z,18.73
2019-04-30T16:49:35.060Z,18.68
2019-04-30T16:52:05.472Z,18.61
2019-04-30T16:54:36.714Z,18.77
2019-04-30T16:57:10.086Z,18.64
2019-04-30T16:59:43.820Z,18.72
2019-04-30T17:02:15.018Z,18.82
2019-04-30T17:04:53.808Z,18.71
2019-04-30T17:07:26.482Z,18.64
2019-04-30T17:10:05.593Z,18.51
2019-04-30T17:12:53.213Z,18.39
2019-04-30T17:15:29.219Z,18.34
2019-04-30T17:18:00.432Z,18.21
2019-04-30T17:20:31.597Z,17.97
2019-04-30T17:23:02.502Z,17.68
2019-04-30T17:25:33.996Z,17.60
2019-04-30T17:28:05.256Z,17.38
2019-04-30T17:30:36.474Z,17.26
2019-04-30T17:33:09.532Z,17.13
2019-04-30T17:35:39.361Z,17.00
2019-04-30T17:38:11.685Z,16.85
2019-04-30T17:40:42.650Z,16.71
2019-04-30T17:43:14.032Z,16.49
2019-04-30T17:45:45.079Z,16.33
2019-04-30T17:48:16.398Z,16.19
2019-04-30T17:50:49.635Z,16.00
2019-04-30T17:53:20.726Z,15.77
2019-04-30T17:55:51.760Z,15.60
2019-04-30T17:58:25.849Z,15.46
2019-04-30T18:00:59.798Z,15.29
2019-04-30T18:03:30.981Z,15.11
2019-04-30T18:06:02.211Z,14.95
2019-04-30T18:08:32.284Z,14.77
2019-04-30T18:11:03.428Z,14.61
2019-04-30T18:13:34.803Z,14.51
2019-04-30T18:16:06.499Z,14.35
2019-04-30T18:18:42.537Z,14.21
2019-04-30T18:21:19.085Z,13.97
2019-04-30T18:24:08.656Z,13.78
2019-04-30T18:26:44.642Z,13.59
2019-04-30T18:29:16.211Z,13.43
2019-04-30T18:31:47.570Z,13.34
2019-04-30T18:34:19.993Z,13.19
2019-04-30T18:36:51.369Z,13.02
2019-04-30T18:39:22.212Z,12.87
2019-04-30T18:41:53.654Z,12.80
2019-04-30T18:44:29.466Z,12.63
2019-04-30T18:47:00.679Z,12.47
2019-04-30T18:49:33.296Z,12.33
2019-04-30T18:52:03.580Z,12.24
2019-04-30T18:54:34.833Z,12.13
2019-04-30T18:57:08.897Z,12.00
2019-04-30T18:59:40.169Z,11.85
2019-04-30T19:02:13.357Z,11.74
2019-04-30T19:04:44.576Z,11.66
2019-04-30T19:07:20.052Z,11.55
2019-04-30T19:09:58.905Z,11.41
2019-04-30T19:16:08.861Z,11.31
2019-04-30T19:18:23.003Z,11.19
2019-04-30T19:20:57.453Z,11.01
2019-04-30T19:23:31.529Z,10.83
2019-04-30T19:26:02.651Z,10.73
2019-04-30T19:28:36.026Z,10.69
2019-04-30T19:31:11.695Z,10.65
2019-04-30T19:33:48.855Z,10.55
2019-04-30T19:36:33.906Z,10.46
2019-04-30T19:38:55.074Z,10.39
2019-04-30T19:41:26.245Z,10.30
2019-04-30T19:43:57.260Z,10.20
2019-04-30T19:46:29.324Z,10.17
2019-04-30T19:49:00.233Z,10.07
2019-04-30T19:51:32.112Z,9.95
2019-04-30T19:54:03.226Z,9.88
2019-04-30T19:56:34.329Z,9.88
2019-04-30T19:59:05.915Z,9.77
2019-04-30T20:04:36.786Z,9.64
2019-04-30T20:07:08.841Z,9.55
2019-04-30T20:09:42.983Z,9.51
2019-04-30T20:12:13.366Z,9.46
2019-04-30T20:14:44.538Z,9.39
2019-04-30T20:17:15.812Z,9.35
2019-04-30T20:19:49.715Z,9.34
2019-04-30T20:22:22.848Z,9.31
2019-04-30T20:24:53.017Z,9.19
2019-04-30T20:27:24.343Z,9.25
2019-04-30T20:29:56.228Z,9.29
2019-04-30T20:32:36.223Z,9.22
2019-04-30T20:35:02.720Z,9.17
2019-04-30T20:37:54.936Z,9.12
2019-04-30T20:40:33.280Z,9.10
2019-04-30T20:43:00.696Z,9.23
2019-04-30T20:45:33.135Z,9.15
2019-04-30T20:48:05.430Z,9.04
2019-04-30T20:50:38.102Z,8.96
2019-04-30T20:53:09.370Z,8.82
2019-04-30T20:55:40.837Z,8.69
2019-04-30T20:58:13.448Z,8.52
2019-04-30T21:00:44.789Z,8.32
2019-04-30T21:03:15.848Z,8.18
2019-04-30T21:05:46.869Z,8.02
2019-04-30T21:08:17.023Z,7.94
2019-04-30T21:10:49.445Z,7.78
2019-04-30T21:13:20.655Z,7.62
2019-04-30T21:15:54.835Z,7.54
2019-04-30T21:18:24.608Z,7.48
2019-04-30T21:20:55.758Z,7.45
2019-04-30T21:23:26.659Z,7.40
2019-04-30T21:25:58.981Z,7.35
2019-04-30T21:28:30.096Z,7.28
2019-04-30T21:31:02.874Z,7.23
2019-04-30T21:33:38.449Z,7.22
2019-04-30T21:36:18.887Z,7.18
2019-04-30T21:38:50.115Z,7.13
2019-04-30T21:41:21.388Z,7.10
2019-04-30T21:43:52.290Z,7.04
2019-04-30T21:46:22.446Z,6.98
2019-04-30T21:48:53.545Z,6.90
2019-04-30T21:51:24.531Z,6.80
2019-04-30T21:53:55.651Z,6.78
2019-04-30T21:56:26.621Z,6.73
2019-04-30T21:58:57.697Z,6.63
2019-04-30T22:01:29.303Z,6.58
2019-04-30T22:04:00.664Z,6.55
2019-04-30T22:06:31.640Z,6.48
2019-04-30T22:09:09.709Z,6.37
2019-04-30T22:11:40.837Z,6.36
2019-04-30T22:14:12.629Z,6.30
2019-04-30T22:16:43.732Z,6.24
2019-04-30T22:19:13.943Z,6.14
2019-04-30T22:21:45.463Z,6.11
2019-04-30T22:24:16.309Z,5.99
2019-04-30T22:26:47.474Z,5.93
2019-04-30T22:29:19.130Z,5.87
2019-04-30T22:31:50.361Z,5.79
2019-04-30T22:34:21.905Z,5.75
2019-04-30T22:36:54.469Z,5.71
2019-04-30T22:39:30.080Z,5.78
2019-04-30T22:42:04.392Z,5.63
2019-04-30T22:44:35.273Z,5.61
2019-04-30T22:47:06.711Z,5.64
2019-04-30T22:49:37.771Z,5.61
2019-04-30T22:52:09.051Z,5.61
2019-04-30T22:54:40.034Z,5.54
2019-04-30T22:57:10.151Z,5.45
2019-04-30T22:59:49.838Z,5.36
2019-04-30T23:02:21.251Z,5.36
2019-04-30T23:04:53.446Z,5.38
2019-04-30T23:07:27.229Z,5.32
2019-04-30T23:09:58.565Z,5.26
2019-04-30T23:12:29.599Z,5.21
2019-04-30T23:15:00.795Z,5.14
2019-04-30T23:17:31.809Z,5.09
2019-04-30T23:20:03.421Z,5.02
2019-04-30T23:22:34.458Z,4.92
2019-04-30T23:25:06.466Z,4.86
2019-04-30T23:27:37.346Z,4.80
2019-04-30T23:30:08.869Z,4.77
2019-04-30T23:32:39.809Z,4.75
2019-04-30T23:35:10.301Z,4.70
2019-04-30T23:37:41.588Z,4.67
2019-04-30T23:40:30.375Z,4.72
2019-04-30T23:43:01.667Z,4.66
2019-04-30T23:45:32.581Z,4.57
2019-04-30T23:48:03.711Z,4.53
2019-04-30T23:50:34.644Z,4.58
2019-04-30T23:53:05.943Z,4.58
2019-04-30T23:55:37.016Z,4.53
2019-04-30T23:58:08.446Z,4.49
